Madrid El Retiro

latitud = 40° 24' 40''N | longitud = 003° 40' 41''W
667 metros sobre el nivel del mar | datos mensuales

Fecha, hora, temperatura, viento dirección y velocidad, humedad y presión.

  • 21-06-2018 22:00:00 | 28.30°C | Sudeste |7.00 km/h | 32.00% | 939.90 hPa
  • 21-06-2018 21:00:00 | 30.10°C | Este |8.00 km/h | 30.00% | 939.90 hPa
  • 21-06-2018 20:00:00 | 31.10°C | Sudeste |9.00 km/h | 29.00% | 940.00 hPa
  • 21-06-2018 19:00:00 | 31.60°C | Este |9.00 km/h | 28.00% | 940.00 hPa
  • 21-06-2018 18:00:00 | 32.60°C | Sudeste |8.00 km/h | 29.00% | 940.40 hPa
  • 21-06-2018 17:00:00 | 32.80°C | Nordeste |9.00 km/h | 29.00% | 940.60 hPa
  • 21-06-2018 16:00:00 | 32.50°C | Este |8.00 km/h | 31.00% | 941.30 hPa
  • 21-06-2018 15:00:00 | 31.70°C | Este |5.00 km/h | 34.00% | 941.80 hPa
  • 21-06-2018 14:00:00 | 30.60°C | Sudeste |10.00 km/h | 35.00% | 942.10 hPa
  • 21-06-2018 13:00:00 | 29.80°C | Este |5.00 km/h | 35.00% | 942.50 hPa
  • 21-06-2018 12:00:00 | 28.00°C | Sur |3.00 km/h | 38.00% | 942.60 hPa
  • 21-06-2018 11:00:00 | 26.40°C | Sur |6.00 km/h | 39.00% | 942.40 hPa
  • 21-06-2018 10:00:00 | 24.80°C | Sur |3.00 km/h | 47.00% | 942.40 hPa
  • 21-06-2018 09:00:00 | 22.60°C | Este |5.00 km/h | 58.00% | 942.30 hPa
  • 21-06-2018 08:00:00 | 20.60°C | Este |2.00 km/h | 59.00% | 941.80 hPa
  • 21-06-2018 07:00:00 | 20.80°C | Este |3.00 km/h | 54.00% | 941.60 hPa
  • 21-06-2018 06:00:00 | 21.40°C | Este |5.00 km/h | 50.00% | 941.50 hPa
  • 21-06-2018 05:00:00 | 22.20°C | Este |7.00 km/h | 47.00% | 941.40 hPa
  • 21-06-2018 04:00:00 | 22.80°C | Este |8.00 km/h | 46.00% | 940.70 hPa
  • 21-06-2018 03:00:00 | 23.50°C | Este |6.00 km/h | 45.00% | 941.90 hPa
  • 21-06-2018 02:00:00 | 25.00°C | Este |10.00 km/h | 44.00% | 941.70 hPa
  • 21-06-2018 01:00:00 | 26.30°C | Sur |6.00 km/h | 42.00% | 940.80 hPa
  • 21-06-2018 00:00:00 | 27.20°C | Sudeste |7.00 km/h | 44.00% | 940.70 hPa
  • 20-06-2018 23:00:00 | 26.80°C | Sudeste |3.00 km/h | 41.00% | 940.10 hPa